TGW535 RPMD-WSSS
Flight info
| Callsign | TGW535 |
|---|---|
| Flight time | 3h 11m |
| Altitude | 36000 |
| Route | DEWIN1C DEWIN W10 ZAM A341 VSN W461 BRU M646 SAKMA/N0451F380 M646 TOMAN KARTO2B |
| Aircraft | A21N/M-SDE2FGHIJ3J7RWYZ/LB1D1 |
Departure
| Time | 2026-05-06 14:15 |
|---|---|
| Airport | Francisco Bangoy International Airport (RPMD) |
Arrival
| Time | 2026-05-06 17:27 |
|---|---|
| Airport | Singapore Changi Airport (WSSS) |
| Time | Latitude | Longitude | Altitude | Speed | Heading |
|---|---|---|---|---|---|
| 2026-05-06 13:15 | 7.12989 | 125.64599 | 107 ft | 0 kts | 320° |
| 2026-05-06 14:00 | 7.12986 | 125.64601 | 107 ft | 3 kts | 319° |
| 2026-05-06 14:00 | 7.12967 | 125.64620 | 107 ft | 4 kts | 317° |
| 2026-05-06 14:01 | 7.12950 | 125.64634 | 107 ft | 4 kts | 325° |
| 2026-05-06 14:01 | 7.12927 | 125.64646 | 107 ft | 4 kts | 351° |
| 2026-05-06 14:01 | 7.12904 | 125.64643 | 105 ft | 4 kts | 42° |
| 2026-05-06 14:01 | 7.12887 | 125.64624 | 107 ft | 4 kts | 49° |
| 2026-05-06 14:02 | 7.12875 | 125.64609 | 107 ft | 0 kts | 49° |
| 2026-05-06 14:06 | 7.12900 | 125.64637 | 105 ft | 11 kts | 47° |
| 2026-05-06 14:06 | 7.12953 | 125.64698 | 106 ft | 13 kts | 49° |
| 2026-05-06 14:06 | 7.13007 | 125.64773 | 107 ft | 14 kts | 81° |
| 2026-05-06 14:07 | 7.12973 | 125.64840 | 106 ft | 0 kts | 139° |
| 2026-05-06 14:07 | 7.12943 | 125.64862 | 107 ft | 11 kts | 144° |
| 2026-05-06 14:07 | 7.12883 | 125.64921 | 106 ft | 13 kts | 110° |
| 2026-05-06 14:07 | 7.12916 | 125.65004 | 107 ft | 14 kts | 46° |
| 2026-05-06 14:08 | 7.12990 | 125.65081 | 106 ft | 16 kts | 47° |
| 2026-05-06 14:08 | 7.13066 | 125.65170 | 106 ft | 17 kts | 50° |
| 2026-05-06 14:08 | 7.13145 | 125.65264 | 105 ft | 18 kts | 49° |
| 2026-05-06 14:08 | 7.13233 | 125.65367 | 104 ft | 20 kts | 48° |
| 2026-05-06 14:09 | 7.13328 | 125.65473 | 104 ft | 21 kts | 49° |
| 2026-05-06 14:09 | 7.13431 | 125.65515 | 105 ft | 12 kts | 21° |
| 2026-05-06 14:09 | 7.13459 | 125.65556 | 104 ft | 6 kts | 100° |
| 2026-05-06 14:09 | 7.13457 | 125.65559 | 105 ft | 0 kts | 122° |
| 2026-05-06 14:13 | 7.13456 | 125.65561 | 105 ft | 2 kts | 123° |
| 2026-05-06 14:13 | 7.13437 | 125.65576 | 105 ft | 5 kts | 164° |
| 2026-05-06 14:13 | 7.13406 | 125.65563 | 105 ft | 0 kts | 242° |
| 2026-05-06 14:14 | 7.13400 | 125.65557 | 104 ft | 2 kts | 227° |
| 2026-05-06 14:14 | 7.13387 | 125.65543 | 102 ft | 4 kts | 226° |
| 2026-05-06 14:14 | 7.13301 | 125.65447 | 104 ft | 50 kts | 229° |
| 2026-05-06 14:15 | 7.12904 | 125.64981 | 107 ft | 122 kts | 229° |
| 2026-05-06 14:15 | 7.12226 | 125.64196 | 214 ft | 161 kts | 229° |
| 2026-05-06 14:15 | 7.11482 | 125.63370 | 788 ft | 160 kts | 225° |
| 2026-05-06 14:15 | 7.10701 | 125.62559 | 1328 ft | 163 kts | 227° |
| 2026-05-06 14:16 | 7.09924 | 125.61705 | 1807 ft | 172 kts | 228° |
| 2026-05-06 14:16 | 7.09074 | 125.60755 | 2132 ft | 193 kts | 228° |
| 2026-05-06 14:16 | 7.08137 | 125.59709 | 2602 ft | 208 kts | 227° |
| 2026-05-06 14:16 | 7.07139 | 125.58588 | 3147 ft | 221 kts | 229° |
| 2026-05-06 14:17 | 7.06346 | 125.57225 | 3623 ft | 236 kts | 255° |
| 2026-05-06 14:17 | 7.06282 | 125.55526 | 3971 ft | 255 kts | 285° |
| 2026-05-06 14:17 | 7.07159 | 125.53955 | 4456 ft | 266 kts | 318° |
| 2026-05-06 14:17 | 7.08755 | 125.53001 | 5156 ft | 271 kts | 339° |
| 2026-05-06 14:18 | 7.10529 | 125.52343 | 5945 ft | 274 kts | 340° |
| 2026-05-06 14:18 | 7.11727 | 125.51906 | 6459 ft | 277 kts | 340° |
| 2026-05-06 14:18 | 7.14154 | 125.50983 | 7469 ft | 281 kts | 339° |
| 2026-05-06 14:18 | 7.15370 | 125.50502 | 7976 ft | 284 kts | 338° |
| 2026-05-06 14:19 | 7.17226 | 125.49761 | 8720 ft | 288 kts | 338° |
| 2026-05-06 14:19 | 7.19090 | 125.49006 | 9394 ft | 290 kts | 338° |
| 2026-05-06 14:19 | 7.20972 | 125.48240 | 10023 ft | 295 kts | 339° |
| 2026-05-06 14:19 | 7.23574 | 125.47185 | 10523 ft | 315 kts | 338° |
| 2026-05-06 14:20 | 7.24972 | 125.46615 | 10699 ft | 327 kts | 338° |
| 2026-05-06 14:20 | 7.27131 | 125.45732 | 10960 ft | 343 kts | 338° |
| 2026-05-06 14:20 | 7.29325 | 125.44663 | 11285 ft | 357 kts | 328° |
| 2026-05-06 14:20 | 7.31265 | 125.43063 | 11817 ft | 364 kts | 313° |
| 2026-05-06 14:21 | 7.32730 | 125.40966 | 12428 ft | 369 kts | 298° |
| 2026-05-06 14:21 | 7.33591 | 125.38523 | 13054 ft | 375 kts | 282° |
| 2026-05-06 14:21 | 7.33757 | 125.35898 | 13675 ft | 378 kts | 267° |
| 2026-05-06 14:21 | 7.33429 | 125.33262 | 14288 ft | 382 kts | 261° |
| 2026-05-06 14:22 | 7.32979 | 125.30616 | 14861 ft | 385 kts | 260° |
| 2026-05-06 14:22 | 7.32541 | 125.27966 | 15332 ft | 385 kts | 261° |
| 2026-05-06 14:22 | 7.32127 | 125.25272 | 15840 ft | 392 kts | 262° |
| 2026-05-06 14:22 | 7.31718 | 125.22545 | 16398 ft | 395 kts | 262° |
| 2026-05-06 14:23 | 7.31311 | 125.19801 | 16938 ft | 398 kts | 262° |
| 2026-05-06 14:23 | 7.30903 | 125.17030 | 17471 ft | 401 kts | 262° |
| 2026-05-06 14:23 | 7.30494 | 125.14238 | 17987 ft | 405 kts | 262° |
| 2026-05-06 14:23 | 7.30082 | 125.11424 | 18492 ft | 408 kts | 262° |
| 2026-05-06 14:24 | 7.29669 | 125.08585 | 18972 ft | 411 kts | 262° |
| 2026-05-06 14:24 | 7.29251 | 125.05729 | 19444 ft | 414 kts | 262° |
| 2026-05-06 14:24 | 7.28829 | 125.02847 | 19911 ft | 417 kts | 262° |
| 2026-05-06 14:24 | 7.28402 | 124.99949 | 20374 ft | 419 kts | 261° |
| 2026-05-06 14:25 | 7.27968 | 124.97040 | 20789 ft | 423 kts | 262° |
| 2026-05-06 14:25 | 7.27544 | 124.94105 | 21202 ft | 424 kts | 262° |
| 2026-05-06 14:25 | 7.27120 | 124.91143 | 21615 ft | 429 kts | 262° |
| 2026-05-06 14:25 | 7.26690 | 124.88162 | 22021 ft | 432 kts | 262° |
| 2026-05-06 14:26 | 7.26249 | 124.85162 | 22422 ft | 434 kts | 262° |
| 2026-05-06 14:26 | 7.25803 | 124.82147 | 22800 ft | 437 kts | 262° |
| 2026-05-06 14:26 | 7.25362 | 124.79151 | 23168 ft | 439 kts | 262° |
| 2026-05-06 14:26 | 7.24910 | 124.76064 | 23549 ft | 441 kts | 262° |
| 2026-05-06 14:27 | 7.24459 | 124.72999 | 23899 ft | 444 kts | 262° |
| 2026-05-06 14:27 | 7.24010 | 124.69962 | 24236 ft | 446 kts | 262° |
| 2026-05-06 14:27 | 7.23549 | 124.66869 | 24565 ft | 448 kts | 262° |
| 2026-05-06 14:27 | 7.23089 | 124.63760 | 24896 ft | 450 kts | 262° |
| 2026-05-06 14:28 | 7.22630 | 124.60635 | 25223 ft | 452 kts | 262° |
| 2026-05-06 14:28 | 7.22169 | 124.57492 | 25556 ft | 454 kts | 262° |
| 2026-05-06 14:28 | 7.21699 | 124.54336 | 25878 ft | 456 kts | 262° |
| 2026-05-06 14:28 | 7.21228 | 124.51172 | 26194 ft | 458 kts | 262° |
| 2026-05-06 14:29 | 7.20754 | 124.47993 | 26502 ft | 460 kts | 262° |
| 2026-05-06 14:29 | 7.20282 | 124.44800 | 26793 ft | 462 kts | 262° |
| 2026-05-06 14:29 | 7.19805 | 124.41591 | 27090 ft | 464 kts | 262° |
| 2026-05-06 14:29 | 7.19331 | 124.38371 | 27356 ft | 466 kts | 262° |
| 2026-05-06 14:30 | 7.18852 | 124.35141 | 27635 ft | 468 kts | 262° |
| 2026-05-06 14:30 | 7.18371 | 124.31896 | 27915 ft | 470 kts | 262° |
| 2026-05-06 14:30 | 7.17892 | 124.28639 | 28193 ft | 471 kts | 262° |
| 2026-05-06 14:30 | 7.17407 | 124.25372 | 28484 ft | 473 kts | 262° |
| 2026-05-06 14:31 | 7.16916 | 124.22089 | 28743 ft | 474 kts | 262° |
| 2026-05-06 14:31 | 7.16506 | 124.18789 | 28991 ft | 476 kts | 264° |
| 2026-05-06 14:31 | 7.16138 | 124.15466 | 29231 ft | 478 kts | 264° |
| 2026-05-06 14:31 | 7.15769 | 124.12138 | 29511 ft | 478 kts | 264° |
| 2026-05-06 14:32 | 7.15401 | 124.08817 | 29814 ft | 478 kts | 264° |
| 2026-05-06 14:32 | 7.15036 | 124.05496 | 30129 ft | 477 kts | 264° |
| 2026-05-06 14:32 | 7.14673 | 124.02182 | 30442 ft | 476 kts | 264° |
| 2026-05-06 14:32 | 7.14307 | 123.98871 | 30749 ft | 475 kts | 264° |
| 2026-05-06 14:33 | 7.13939 | 123.95571 | 31040 ft | 474 kts | 263° |
| 2026-05-06 14:33 | 7.13568 | 123.92275 | 31321 ft | 474 kts | 264° |
| 2026-05-06 14:33 | 7.13205 | 123.88982 | 31602 ft | 472 kts | 264° |
| 2026-05-06 14:33 | 7.12844 | 123.85699 | 31861 ft | 472 kts | 264° |
| 2026-05-06 14:34 | 7.12478 | 123.82415 | 32123 ft | 472 kts | 264° |
| 2026-05-06 14:34 | 7.12112 | 123.79131 | 32371 ft | 471 kts | 263° |
| 2026-05-06 14:34 | 7.11746 | 123.75857 | 32632 ft | 471 kts | 263° |
| 2026-05-06 14:34 | 7.11381 | 123.72582 | 32892 ft | 470 kts | 263° |
| 2026-05-06 14:35 | 7.11019 | 123.69315 | 33136 ft | 469 kts | 263° |
| 2026-05-06 14:35 | 7.10654 | 123.66060 | 33353 ft | 469 kts | 263° |
| 2026-05-06 14:35 | 7.10284 | 123.62799 | 33557 ft | 468 kts | 263° |
| 2026-05-06 14:35 | 7.09915 | 123.59544 | 33765 ft | 468 kts | 263° |
| 2026-05-06 14:36 | 7.09549 | 123.56293 | 34006 ft | 467 kts | 263° |
| 2026-05-06 14:36 | 7.09186 | 123.53043 | 34221 ft | 467 kts | 263° |
| 2026-05-06 14:36 | 7.08823 | 123.49800 | 34424 ft | 466 kts | 263° |
| 2026-05-06 14:36 | 7.08461 | 123.46557 | 34622 ft | 466 kts | 263° |
| 2026-05-06 14:37 | 7.08102 | 123.43323 | 34806 ft | 465 kts | 263° |
| 2026-05-06 14:37 | 7.07738 | 123.40087 | 35007 ft | 464 kts | 263° |
| 2026-05-06 14:37 | 7.07374 | 123.36859 | 35196 ft | 464 kts | 263° |
| 2026-05-06 14:37 | 7.07009 | 123.33633 | 35376 ft | 463 kts | 263° |
| 2026-05-06 14:38 | 7.06646 | 123.30415 | 35539 ft | 463 kts | 263° |
| 2026-05-06 14:38 | 7.06282 | 123.27198 | 35709 ft | 463 kts | 263° |
| 2026-05-06 14:38 | 7.05920 | 123.23980 | 35866 ft | 462 kts | 263° |
| 2026-05-06 14:38 | 7.05558 | 123.20759 | 35938 ft | 462 kts | 263° |
| 2026-05-06 14:39 | 7.04834 | 123.14338 | 35912 ft | 461 kts | 263° |
| 2026-05-06 14:39 | 7.04108 | 123.07920 | 35901 ft | 461 kts | 263° |
| 2026-05-06 14:40 | 7.03389 | 123.01544 | 35901 ft | 461 kts | 263° |
| 2026-05-06 14:40 | 7.02666 | 122.95129 | 35900 ft | 461 kts | 263° |
| 2026-05-06 14:41 | 7.01950 | 122.88711 | 35900 ft | 461 kts | 263° |
| 2026-05-06 14:41 | 7.01229 | 122.82298 | 35900 ft | 461 kts | 263° |
| 2026-05-06 14:42 | 7.00500 | 122.75891 | 35900 ft | 461 kts | 263° |
| 2026-05-06 14:42 | 6.99770 | 122.69479 | 35900 ft | 461 kts | 263° |
| 2026-05-06 14:43 | 6.99041 | 122.63068 | 35900 ft | 461 kts | 263° |
| 2026-05-06 14:43 | 6.98309 | 122.56657 | 35901 ft | 461 kts | 263° |
| 2026-05-06 14:44 | 6.97582 | 122.50246 | 35900 ft | 461 kts | 263° |
| 2026-05-06 14:45 | 6.96488 | 122.40628 | 35900 ft | 461 kts | 263° |
| 2026-05-06 14:45 | 6.95753 | 122.34221 | 35909 ft | 461 kts | 263° |
| 2026-05-06 14:46 | 6.95013 | 122.27808 | 35911 ft | 461 kts | 263° |
| 2026-05-06 14:46 | 6.94280 | 122.21397 | 35911 ft | 461 kts | 263° |
| 2026-05-06 14:47 | 6.93547 | 122.14988 | 35910 ft | 461 kts | 263° |
| 2026-05-06 14:47 | 6.92811 | 122.08574 | 35911 ft | 461 kts | 263° |
| 2026-05-06 14:48 | 6.91650 | 122.02237 | 35910 ft | 461 kts | 256° |
| 2026-05-06 14:48 | 6.90060 | 121.95988 | 35910 ft | 461 kts | 255° |
| 2026-05-06 14:49 | 6.88475 | 121.89739 | 35910 ft | 461 kts | 256° |
| 2026-05-06 14:49 | 6.86902 | 121.83488 | 35910 ft | 460 kts | 256° |
| 2026-05-06 14:50 | 6.85330 | 121.77247 | 35910 ft | 460 kts | 256° |
| 2026-05-06 14:50 | 6.83752 | 121.71007 | 35910 ft | 460 kts | 256° |
| 2026-05-06 14:51 | 6.82190 | 121.64812 | 35911 ft | 460 kts | 256° |
| 2026-05-06 14:51 | 6.80610 | 121.58574 | 35911 ft | 460 kts | 256° |
| 2026-05-06 14:52 | 6.79030 | 121.52335 | 35910 ft | 460 kts | 256° |
| 2026-05-06 14:52 | 6.77455 | 121.46098 | 35905 ft | 460 kts | 256° |
| 2026-05-06 14:53 | 6.75878 | 121.39857 | 35901 ft | 460 kts | 256° |
| 2026-05-06 14:53 | 6.74289 | 121.33619 | 35901 ft | 460 kts | 255° |
| 2026-05-06 14:54 | 6.72704 | 121.27383 | 35900 ft | 461 kts | 255° |
| 2026-05-06 14:54 | 6.71124 | 121.21140 | 35900 ft | 460 kts | 255° |
| 2026-05-06 14:55 | 6.69537 | 121.14902 | 35900 ft | 461 kts | 255° |
| 2026-05-06 14:55 | 6.67947 | 121.08661 | 35900 ft | 461 kts | 255° |
| 2026-05-06 14:56 | 6.66361 | 121.02418 | 35900 ft | 461 kts | 256° |
| 2026-05-06 14:56 | 6.64778 | 120.96181 | 35900 ft | 460 kts | 255° |
| 2026-05-06 14:57 | 6.63192 | 120.89939 | 35900 ft | 460 kts | 255° |
| 2026-05-06 14:57 | 6.61601 | 120.83701 | 35900 ft | 460 kts | 255° |
| 2026-05-06 14:58 | 6.60010 | 120.77463 | 35901 ft | 461 kts | 255° |
| 2026-05-06 14:58 | 6.58420 | 120.71220 | 35901 ft | 460 kts | 255° |
| 2026-05-06 14:59 | 6.56829 | 120.64977 | 35901 ft | 461 kts | 255° |
| 2026-05-06 14:59 | 6.55244 | 120.58736 | 35900 ft | 461 kts | 255° |
| 2026-05-06 15:00 | 6.53654 | 120.52496 | 35900 ft | 461 kts | 255° |
| 2026-05-06 15:00 | 6.52065 | 120.46257 | 35900 ft | 461 kts | 255° |
| 2026-05-06 15:01 | 6.50477 | 120.40016 | 35900 ft | 461 kts | 255° |
| 2026-05-06 15:01 | 6.48880 | 120.33772 | 35897 ft | 461 kts | 255° |
| 2026-05-06 15:02 | 6.47281 | 120.27531 | 35891 ft | 461 kts | 255° |
| 2026-05-06 15:02 | 6.45688 | 120.21294 | 35892 ft | 461 kts | 255° |
| 2026-05-06 15:03 | 6.44090 | 120.15043 | 35892 ft | 461 kts | 255° |
| 2026-05-06 15:03 | 6.42486 | 120.08803 | 35891 ft | 461 kts | 255° |
| 2026-05-06 15:04 | 6.41160 | 120.03615 | 35891 ft | 461 kts | 255° |
| 2026-05-06 15:04 | 6.39560 | 119.97376 | 35889 ft | 461 kts | 255° |
| 2026-05-06 15:05 | 6.37959 | 119.91133 | 35889 ft | 461 kts | 255° |
| 2026-05-06 15:05 | 6.36356 | 119.84899 | 35890 ft | 461 kts | 255° |
| 2026-05-06 15:06 | 6.34481 | 119.77644 | 35891 ft | 461 kts | 255° |
| 2026-05-06 15:06 | 6.33145 | 119.72410 | 35890 ft | 461 kts | 255° |
| 2026-05-06 15:07 | 6.31547 | 119.66169 | 35890 ft | 461 kts | 255° |
| 2026-05-06 15:07 | 6.29942 | 119.59936 | 35890 ft | 461 kts | 255° |
| 2026-05-06 15:08 | 6.28347 | 119.53735 | 35882 ft | 461 kts | 255° |
| 2026-05-06 15:08 | 6.26737 | 119.47491 | 35881 ft | 461 kts | 255° |
| 2026-05-06 15:09 | 6.25133 | 119.41252 | 35881 ft | 461 kts | 255° |
| 2026-05-06 15:09 | 6.23528 | 119.35022 | 35880 ft | 460 kts | 255° |
| 2026-05-06 15:10 | 6.21920 | 119.28794 | 35863 ft | 460 kts | 255° |
| 2026-05-06 15:10 | 6.20312 | 119.22562 | 35881 ft | 460 kts | 255° |
| 2026-05-06 15:11 | 6.18709 | 119.16341 | 35880 ft | 460 kts | 255° |
| 2026-05-06 15:11 | 6.17096 | 119.10112 | 35880 ft | 460 kts | 255° |
| 2026-05-06 15:12 | 6.15486 | 119.03889 | 35882 ft | 460 kts | 255° |
| 2026-05-06 15:12 | 6.13875 | 118.97667 | 35882 ft | 460 kts | 255° |
| 2026-05-06 15:13 | 6.12264 | 118.91440 | 35881 ft | 460 kts | 255° |
| 2026-05-06 15:13 | 6.10658 | 118.85219 | 35880 ft | 460 kts | 255° |
| 2026-05-06 15:14 | 6.09047 | 118.78999 | 35868 ft | 460 kts | 255° |
| 2026-05-06 15:14 | 6.07438 | 118.72777 | 35880 ft | 460 kts | 255° |
| 2026-05-06 15:15 | 6.05824 | 118.66555 | 35879 ft | 460 kts | 255° |
| 2026-05-06 15:15 | 6.04214 | 118.60341 | 35881 ft | 460 kts | 255° |
| 2026-05-06 15:16 | 6.02598 | 118.54123 | 35880 ft | 460 kts | 255° |
| 2026-05-06 15:16 | 6.00976 | 118.47905 | 35881 ft | 460 kts | 255° |
| 2026-05-06 15:17 | 5.99345 | 118.41685 | 35879 ft | 460 kts | 255° |
| 2026-05-06 15:17 | 5.97714 | 118.35473 | 35880 ft | 460 kts | 255° |
| 2026-05-06 15:18 | 5.96079 | 118.29258 | 35880 ft | 460 kts | 255° |
| 2026-05-06 15:18 | 5.94449 | 118.23045 | 35879 ft | 460 kts | 255° |
| 2026-05-06 15:19 | 5.92821 | 118.16832 | 35880 ft | 460 kts | 255° |
| 2026-05-06 15:19 | 5.91199 | 118.10661 | 35882 ft | 460 kts | 255° |
| 2026-05-06 15:20 | 5.89429 | 118.04495 | 35883 ft | 460 kts | 252° |
| 2026-05-06 15:20 | 5.87493 | 117.98370 | 35881 ft | 460 kts | 252° |
| 2026-05-06 15:21 | 5.85561 | 117.92251 | 35882 ft | 460 kts | 252° |
| 2026-05-06 15:21 | 5.83627 | 117.86123 | 35881 ft | 461 kts | 252° |
| 2026-05-06 15:22 | 5.81690 | 117.79993 | 35880 ft | 461 kts | 252° |
| 2026-05-06 15:22 | 5.79750 | 117.73858 | 35879 ft | 461 kts | 252° |
| 2026-05-06 15:23 | 5.77816 | 117.67732 | 35880 ft | 461 kts | 252° |
| 2026-05-06 15:23 | 5.75880 | 117.61593 | 35881 ft | 461 kts | 252° |
| 2026-05-06 15:24 | 5.73939 | 117.55456 | 35872 ft | 461 kts | 252° |
| 2026-05-06 15:24 | 5.71996 | 117.49318 | 35881 ft | 461 kts | 252° |
| 2026-05-06 15:25 | 5.70048 | 117.43195 | 35881 ft | 461 kts | 251° |
| 2026-05-06 15:25 | 5.68083 | 117.37058 | 35868 ft | 461 kts | 251° |
| 2026-05-06 15:26 | 5.66120 | 117.30934 | 35877 ft | 461 kts | 251° |
| 2026-05-06 15:26 | 5.64154 | 117.24797 | 35864 ft | 461 kts | 251° |
| 2026-05-06 15:27 | 5.62189 | 117.18661 | 35875 ft | 462 kts | 251° |
| 2026-05-06 15:27 | 5.60226 | 117.12529 | 35866 ft | 462 kts | 251° |
| 2026-05-06 15:28 | 5.58253 | 117.06397 | 35873 ft | 462 kts | 251° |
| 2026-05-06 15:28 | 5.56271 | 117.00262 | 35874 ft | 462 kts | 251° |
| 2026-05-06 15:29 | 5.54292 | 116.94134 | 35866 ft | 462 kts | 251° |
| 2026-05-06 15:29 | 5.52308 | 116.88000 | 35865 ft | 462 kts | 251° |
| 2026-05-06 15:30 | 5.50328 | 116.81867 | 35873 ft | 462 kts | 251° |
| 2026-05-06 15:30 | 5.48347 | 116.75732 | 35879 ft | 462 kts | 251° |
| 2026-05-06 15:31 | 5.46365 | 116.69597 | 35857 ft | 462 kts | 251° |
| 2026-05-06 15:31 | 5.44396 | 116.63506 | 35856 ft | 462 kts | 251° |
| 2026-05-06 15:32 | 5.41418 | 116.54307 | 35862 ft | 462 kts | 251° |
| 2026-05-06 15:32 | 5.39446 | 116.48165 | 35863 ft | 462 kts | 251° |
| 2026-05-06 15:33 | 5.37470 | 116.42020 | 35863 ft | 463 kts | 251° |
| 2026-05-06 15:33 | 5.35483 | 116.35876 | 35860 ft | 462 kts | 251° |
| 2026-05-06 15:34 | 5.33497 | 116.29737 | 35855 ft | 462 kts | 251° |
| 2026-05-06 15:34 | 5.31509 | 116.23596 | 35865 ft | 463 kts | 251° |
| 2026-05-06 15:35 | 5.29523 | 116.17460 | 35866 ft | 463 kts | 251° |
| 2026-05-06 15:35 | 5.27536 | 116.11324 | 35862 ft | 463 kts | 251° |
| 2026-05-06 15:36 | 5.25548 | 116.05182 | 35865 ft | 462 kts | 251° |
| 2026-05-06 15:36 | 5.23556 | 115.99050 | 35862 ft | 463 kts | 251° |
| 2026-05-06 15:37 | 5.21568 | 115.92908 | 35879 ft | 463 kts | 251° |
| 2026-05-06 15:37 | 5.19578 | 115.86767 | 35874 ft | 463 kts | 251° |
| 2026-05-06 15:38 | 5.17586 | 115.80622 | 35879 ft | 463 kts | 251° |
| 2026-05-06 15:38 | 5.15593 | 115.74480 | 35881 ft | 463 kts | 251° |
| 2026-05-06 15:39 | 5.13612 | 115.68385 | 35882 ft | 463 kts | 251° |
| 2026-05-06 15:39 | 5.11608 | 115.62246 | 35881 ft | 463 kts | 251° |
| 2026-05-06 15:40 | 5.09595 | 115.56109 | 35882 ft | 463 kts | 251° |
| 2026-05-06 15:40 | 5.07589 | 115.49971 | 35881 ft | 463 kts | 251° |
| 2026-05-06 15:41 | 5.05584 | 115.43841 | 35881 ft | 463 kts | 251° |
| 2026-05-06 15:41 | 5.03577 | 115.37712 | 35881 ft | 463 kts | 251° |
| 2026-05-06 15:42 | 5.01564 | 115.31571 | 35881 ft | 463 kts | 251° |
| 2026-05-06 15:42 | 4.99556 | 115.25433 | 35885 ft | 463 kts | 251° |
| 2026-05-06 15:43 | 4.97544 | 115.19306 | 35891 ft | 463 kts | 251° |
| 2026-05-06 15:43 | 4.95533 | 115.13177 | 35894 ft | 463 kts | 251° |
| 2026-05-06 15:44 | 4.93520 | 115.07038 | 35900 ft | 463 kts | 251° |
| 2026-05-06 15:44 | 4.91510 | 115.00909 | 35901 ft | 463 kts | 251° |
| 2026-05-06 15:45 | 4.89500 | 114.94777 | 35900 ft | 463 kts | 251° |
| 2026-05-06 15:45 | 4.87474 | 114.88641 | 35907 ft | 463 kts | 250° |
| 2026-05-06 15:46 | 4.85201 | 114.82604 | 35911 ft | 463 kts | 249° |
| 2026-05-06 15:46 | 4.82899 | 114.76573 | 35910 ft | 463 kts | 249° |
| 2026-05-06 15:47 | 4.80610 | 114.70539 | 35910 ft | 463 kts | 249° |
| 2026-05-06 15:47 | 4.78318 | 114.64505 | 35910 ft | 463 kts | 249° |
| 2026-05-06 15:48 | 4.76026 | 114.58467 | 35910 ft | 463 kts | 249° |
| 2026-05-06 15:48 | 4.73736 | 114.52435 | 35910 ft | 463 kts | 249° |
| 2026-05-06 15:49 | 4.71440 | 114.46399 | 35901 ft | 463 kts | 249° |
| 2026-05-06 15:49 | 4.69144 | 114.40361 | 35900 ft | 463 kts | 249° |
| 2026-05-06 15:50 | 4.66850 | 114.34330 | 35900 ft | 463 kts | 249° |
| 2026-05-06 15:50 | 4.64567 | 114.28333 | 35901 ft | 464 kts | 249° |
| 2026-05-06 15:51 | 4.62266 | 114.22295 | 35908 ft | 463 kts | 249° |
| 2026-05-06 15:51 | 4.59976 | 114.16262 | 35910 ft | 463 kts | 249° |
| 2026-05-06 15:52 | 4.57684 | 114.10234 | 35910 ft | 463 kts | 249° |
| 2026-05-06 15:52 | 4.55744 | 114.05191 | 35910 ft | 463 kts | 248° |
| 2026-05-06 15:53 | 4.53421 | 113.99214 | 35910 ft | 463 kts | 248° |
| 2026-05-06 15:53 | 4.51088 | 113.93198 | 35904 ft | 463 kts | 248° |
| 2026-05-06 15:54 | 4.48751 | 113.87180 | 35900 ft | 463 kts | 248° |
| 2026-05-06 15:54 | 4.46414 | 113.81157 | 35900 ft | 464 kts | 248° |
| 2026-05-06 15:55 | 4.44082 | 113.75135 | 35901 ft | 463 kts | 248° |
| 2026-05-06 15:55 | 4.41750 | 113.69111 | 35900 ft | 463 kts | 248° |
| 2026-05-06 15:56 | 4.39427 | 113.63083 | 35901 ft | 464 kts | 249° |
| 2026-05-06 15:56 | 4.37115 | 113.57059 | 35901 ft | 463 kts | 249° |
| 2026-05-06 15:57 | 4.34799 | 113.51030 | 35900 ft | 463 kts | 248° |
| 2026-05-06 15:57 | 4.32481 | 113.45004 | 35900 ft | 464 kts | 248° |
| 2026-05-06 15:58 | 4.30164 | 113.38972 | 35900 ft | 464 kts | 248° |
| 2026-05-06 15:58 | 4.27858 | 113.32939 | 35901 ft | 464 kts | 248° |
| 2026-05-06 15:59 | 4.25542 | 113.26904 | 35900 ft | 464 kts | 249° |
| 2026-05-06 15:59 | 4.23225 | 113.20872 | 35900 ft | 464 kts | 248° |
| 2026-05-06 16:00 | 4.20900 | 113.14838 | 35892 ft | 464 kts | 248° |
| 2026-05-06 16:00 | 4.18568 | 113.08809 | 35892 ft | 464 kts | 248° |
| 2026-05-06 16:01 | 4.16243 | 113.02773 | 35890 ft | 464 kts | 248° |
| 2026-05-06 16:01 | 4.13918 | 112.96738 | 35891 ft | 465 kts | 248° |
| 2026-05-06 16:02 | 4.11612 | 112.90745 | 35891 ft | 465 kts | 248° |
| 2026-05-06 16:02 | 4.09287 | 112.84701 | 35890 ft | 465 kts | 248° |
| 2026-05-06 16:03 | 4.06958 | 112.78665 | 35890 ft | 465 kts | 248° |
| 2026-05-06 16:03 | 4.04629 | 112.72622 | 35889 ft | 465 kts | 248° |
| 2026-05-06 16:04 | 4.02301 | 112.66578 | 35880 ft | 465 kts | 248° |
| 2026-05-06 16:04 | 3.99979 | 112.60523 | 35879 ft | 465 kts | 248° |
| 2026-05-06 16:05 | 3.97659 | 112.54480 | 35882 ft | 465 kts | 248° |
| 2026-05-06 16:05 | 3.95336 | 112.48433 | 35881 ft | 465 kts | 248° |
| 2026-05-06 16:06 | 3.93022 | 112.42385 | 35880 ft | 465 kts | 248° |
| 2026-05-06 16:06 | 3.90699 | 112.36337 | 35881 ft | 465 kts | 248° |
| 2026-05-06 16:07 | 3.88379 | 112.30289 | 35879 ft | 465 kts | 248° |
| 2026-05-06 16:07 | 3.86053 | 112.24244 | 35880 ft | 465 kts | 248° |
| 2026-05-06 16:08 | 3.83727 | 112.18194 | 35880 ft | 465 kts | 248° |
| 2026-05-06 16:08 | 3.81403 | 112.12146 | 35880 ft | 465 kts | 248° |
| 2026-05-06 16:09 | 3.79074 | 112.06098 | 35881 ft | 465 kts | 248° |
| 2026-05-06 16:09 | 3.76764 | 112.00088 | 35881 ft | 466 kts | 248° |
| 2026-05-06 16:10 | 3.74434 | 111.94040 | 35881 ft | 466 kts | 248° |
| 2026-05-06 16:10 | 3.72090 | 111.87993 | 35881 ft | 466 kts | 248° |
| 2026-05-06 16:11 | 3.69758 | 111.81950 | 35868 ft | 466 kts | 248° |
| 2026-05-06 16:11 | 3.67429 | 111.75900 | 35880 ft | 466 kts | 248° |
| 2026-05-06 16:12 | 3.65097 | 111.69850 | 35880 ft | 466 kts | 248° |
| 2026-05-06 16:12 | 3.62766 | 111.63799 | 35881 ft | 466 kts | 248° |
| 2026-05-06 16:13 | 3.60444 | 111.57751 | 35877 ft | 466 kts | 248° |
| 2026-05-06 16:13 | 3.58121 | 111.51694 | 35881 ft | 465 kts | 248° |
| 2026-05-06 16:14 | 3.55775 | 111.45654 | 35873 ft | 466 kts | 248° |
| 2026-05-06 16:14 | 3.53446 | 111.39601 | 35883 ft | 466 kts | 248° |
| 2026-05-06 16:15 | 3.51109 | 111.33551 | 35889 ft | 466 kts | 248° |
| 2026-05-06 16:15 | 3.48783 | 111.27504 | 35890 ft | 466 kts | 248° |
| 2026-05-06 16:16 | 3.46450 | 111.21454 | 35891 ft | 466 kts | 248° |
| 2026-05-06 16:16 | 3.44116 | 111.15404 | 35884 ft | 466 kts | 248° |
| 2026-05-06 16:17 | 3.41780 | 111.09358 | 35881 ft | 466 kts | 248° |
| 2026-05-06 16:17 | 3.39448 | 111.03310 | 35881 ft | 466 kts | 248° |
| 2026-05-06 16:18 | 3.37113 | 110.97259 | 35883 ft | 464 kts | 249° |
| 2026-05-06 16:18 | 3.34783 | 110.91216 | 35881 ft | 466 kts | 248° |
| 2026-05-06 16:19 | 3.32442 | 110.85167 | 35882 ft | 466 kts | 248° |
| 2026-05-06 16:19 | 3.30118 | 110.79159 | 35882 ft | 466 kts | 248° |
| 2026-05-06 16:20 | 3.27777 | 110.73114 | 35889 ft | 466 kts | 248° |
| 2026-05-06 16:20 | 3.25433 | 110.67063 | 35889 ft | 466 kts | 248° |
| 2026-05-06 16:21 | 3.23094 | 110.61011 | 35891 ft | 466 kts | 248° |
| 2026-05-06 16:21 | 3.20758 | 110.54959 | 35891 ft | 466 kts | 248° |
| 2026-05-06 16:22 | 3.18415 | 110.48913 | 35889 ft | 466 kts | 248° |
| 2026-05-06 16:22 | 3.16079 | 110.42862 | 35891 ft | 466 kts | 249° |
| 2026-05-06 16:23 | 3.13738 | 110.36822 | 35891 ft | 467 kts | 248° |
| 2026-05-06 16:23 | 3.11386 | 110.30773 | 35890 ft | 466 kts | 248° |
| 2026-05-06 16:24 | 3.09028 | 110.24729 | 35899 ft | 466 kts | 248° |
| 2026-05-06 16:24 | 3.06685 | 110.18686 | 35900 ft | 466 kts | 248° |
| 2026-05-06 16:25 | 3.04344 | 110.12643 | 35900 ft | 466 kts | 248° |
| 2026-05-06 16:25 | 3.02001 | 110.06593 | 35900 ft | 466 kts | 248° |
| 2026-05-06 16:26 | 2.99677 | 110.00536 | 35900 ft | 466 kts | 248° |
| 2026-05-06 16:26 | 2.97339 | 109.94485 | 35901 ft | 466 kts | 248° |
| 2026-05-06 16:27 | 2.94993 | 109.88443 | 35900 ft | 466 kts | 248° |
| 2026-05-06 16:27 | 2.92648 | 109.82399 | 35900 ft | 466 kts | 248° |
| 2026-05-06 16:28 | 2.90307 | 109.76359 | 35900 ft | 466 kts | 248° |
| 2026-05-06 16:28 | 2.87963 | 109.70311 | 35900 ft | 466 kts | 248° |
| 2026-05-06 16:29 | 2.85635 | 109.64307 | 35900 ft | 466 kts | 248° |
| 2026-05-06 16:29 | 2.83276 | 109.58227 | 35900 ft | 466 kts | 248° |
| 2026-05-06 16:30 | 2.81328 | 109.53211 | 35900 ft | 465 kts | 248° |
| 2026-05-06 16:30 | 2.78603 | 109.46193 | 35901 ft | 466 kts | 248° |
| 2026-05-06 16:31 | 2.76263 | 109.40147 | 35901 ft | 466 kts | 248° |
| 2026-05-06 16:31 | 2.73915 | 109.34107 | 35900 ft | 466 kts | 248° |
| 2026-05-06 16:32 | 2.71566 | 109.28065 | 35900 ft | 466 kts | 248° |
| 2026-05-06 16:32 | 2.69224 | 109.22023 | 35900 ft | 466 kts | 248° |
| 2026-05-06 16:33 | 2.66875 | 109.15982 | 35901 ft | 466 kts | 248° |
| 2026-05-06 16:34 | 2.63355 | 109.06920 | 35900 ft | 466 kts | 248° |
| 2026-05-06 16:34 | 2.61005 | 109.00887 | 35900 ft | 465 kts | 248° |
| 2026-05-06 16:35 | 2.58659 | 108.94854 | 35901 ft | 466 kts | 248° |
| 2026-05-06 16:35 | 2.56322 | 108.88813 | 35901 ft | 466 kts | 248° |
| 2026-05-06 16:36 | 2.54002 | 108.82768 | 35900 ft | 466 kts | 248° |
| 2026-05-06 16:36 | 2.51669 | 108.76730 | 35900 ft | 465 kts | 248° |
| 2026-05-06 16:37 | 2.49335 | 108.70692 | 35900 ft | 465 kts | 248° |
| 2026-05-06 16:37 | 2.47014 | 108.64656 | 35900 ft | 465 kts | 248° |
| 2026-05-06 16:38 | 2.44686 | 108.58621 | 35900 ft | 465 kts | 248° |
| 2026-05-06 16:38 | 2.42362 | 108.52590 | 35900 ft | 465 kts | 248° |
| 2026-05-06 16:39 | 2.40036 | 108.46561 | 35900 ft | 465 kts | 248° |
| 2026-05-06 16:39 | 2.38100 | 108.41553 | 35900 ft | 465 kts | 248° |
| 2026-05-06 16:40 | 2.35382 | 108.34505 | 35900 ft | 465 kts | 248° |
| 2026-05-06 16:40 | 2.33446 | 108.29494 | 35901 ft | 465 kts | 248° |
| 2026-05-06 16:41 | 2.31115 | 108.23471 | 35900 ft | 464 kts | 248° |
| 2026-05-06 16:41 | 2.28789 | 108.17448 | 35900 ft | 464 kts | 248° |
| 2026-05-06 16:42 | 2.26464 | 108.11425 | 35900 ft | 464 kts | 248° |
| 2026-05-06 16:42 | 2.24140 | 108.05406 | 35901 ft | 464 kts | 248° |
| 2026-05-06 16:43 | 2.21818 | 107.99382 | 35900 ft | 464 kts | 248° |
| 2026-05-06 16:43 | 2.19491 | 107.93368 | 35901 ft | 464 kts | 248° |
| 2026-05-06 16:44 | 2.17163 | 107.87350 | 35901 ft | 464 kts | 248° |
| 2026-05-06 16:44 | 2.14839 | 107.81330 | 35892 ft | 464 kts | 248° |
| 2026-05-06 16:45 | 2.12492 | 107.75320 | 35892 ft | 464 kts | 248° |
| 2026-05-06 16:45 | 2.10159 | 107.69353 | 35891 ft | 464 kts | 248° |
| 2026-05-06 16:46 | 2.07819 | 107.63338 | 35890 ft | 464 kts | 248° |
| 2026-05-06 16:46 | 2.05484 | 107.57325 | 35889 ft | 464 kts | 248° |
| 2026-05-06 16:47 | 2.03139 | 107.51306 | 35890 ft | 465 kts | 248° |
| 2026-05-06 16:47 | 2.00789 | 107.45289 | 35891 ft | 465 kts | 248° |
| 2026-05-06 16:48 | 1.98452 | 107.39268 | 35883 ft | 464 kts | 248° |
| 2026-05-06 16:48 | 1.96134 | 107.33239 | 35883 ft | 464 kts | 249° |
| 2026-05-06 16:49 | 1.93805 | 107.27223 | 35888 ft | 464 kts | 248° |
| 2026-05-06 16:49 | 1.91484 | 107.21202 | 35891 ft | 464 kts | 248° |
| 2026-05-06 16:50 | 1.89153 | 107.15184 | 35890 ft | 464 kts | 248° |
| 2026-05-06 16:50 | 1.86827 | 107.09162 | 35890 ft | 464 kts | 248° |
| 2026-05-06 16:51 | 1.84501 | 107.03142 | 35891 ft | 465 kts | 248° |
| 2026-05-06 16:51 | 1.82167 | 106.97117 | 35892 ft | 465 kts | 248° |
| 2026-05-06 16:52 | 1.79832 | 106.91089 | 35890 ft | 465 kts | 248° |
| 2026-05-06 16:52 | 1.77524 | 106.85099 | 35890 ft | 465 kts | 248° |
| 2026-05-06 16:53 | 1.75195 | 106.79075 | 35891 ft | 465 kts | 248° |
| 2026-05-06 16:53 | 1.72859 | 106.73050 | 35891 ft | 465 kts | 248° |
| 2026-05-06 16:54 | 1.70530 | 106.67024 | 35890 ft | 465 kts | 248° |
| 2026-05-06 16:54 | 1.68196 | 106.61000 | 35891 ft | 465 kts | 248° |
| 2026-05-06 16:55 | 1.65858 | 106.54970 | 35892 ft | 465 kts | 248° |
| 2026-05-06 16:55 | 1.63517 | 106.48943 | 35891 ft | 465 kts | 248° |
| 2026-05-06 16:56 | 1.61176 | 106.42921 | 35891 ft | 465 kts | 248° |
| 2026-05-06 16:56 | 1.58840 | 106.36895 | 35891 ft | 465 kts | 248° |
| 2026-05-06 16:57 | 1.56503 | 106.30869 | 35889 ft | 465 kts | 248° |
| 2026-05-06 16:57 | 1.54169 | 106.24845 | 35891 ft | 465 kts | 248° |
| 2026-05-06 16:58 | 1.51827 | 106.18819 | 35891 ft | 465 kts | 248° |
| 2026-05-06 16:58 | 1.49489 | 106.12796 | 35890 ft | 465 kts | 248° |
| 2026-05-06 16:59 | 1.47146 | 106.06769 | 35891 ft | 465 kts | 248° |
| 2026-05-06 16:59 | 1.44827 | 106.00781 | 35891 ft | 465 kts | 248° |
| 2026-05-06 17:00 | 1.42488 | 105.94757 | 35892 ft | 465 kts | 248° |
| 2026-05-06 17:00 | 1.40145 | 105.88727 | 35893 ft | 465 kts | 248° |
| 2026-05-06 17:01 | 1.37807 | 105.82698 | 35891 ft | 465 kts | 248° |
| 2026-05-06 17:01 | 1.35466 | 105.76680 | 35890 ft | 465 kts | 248° |
| 2026-05-06 17:02 | 1.33121 | 105.70651 | 35891 ft | 465 kts | 248° |
| 2026-05-06 17:02 | 1.30776 | 105.64627 | 35891 ft | 465 kts | 248° |
| 2026-05-06 17:03 | 1.28428 | 105.58603 | 35893 ft | 465 kts | 248° |
| 2026-05-06 17:03 | 1.26080 | 105.52587 | 35900 ft | 465 kts | 248° |
| 2026-05-06 17:04 | 1.23728 | 105.46569 | 35901 ft | 465 kts | 248° |
| 2026-05-06 17:04 | 1.21374 | 105.40555 | 35900 ft | 465 kts | 248° |
| 2026-05-06 17:05 | 1.19021 | 105.34543 | 35901 ft | 465 kts | 248° |
| 2026-05-06 17:05 | 1.16664 | 105.28524 | 35901 ft | 465 kts | 248° |
| 2026-05-06 17:06 | 1.14316 | 105.22530 | 35715 ft | 458 kts | 248° |
| 2026-05-06 17:06 | 1.13154 | 105.19561 | 34819 ft | 460 kts | 248° |
| 2026-05-06 17:06 | 1.11987 | 105.16579 | 33902 ft | 463 kts | 248° |
| 2026-05-06 17:06 | 1.10812 | 105.13575 | 32969 ft | 465 kts | 248° |
| 2026-05-06 17:07 | 1.09635 | 105.10555 | 32011 ft | 468 kts | 248° |
| 2026-05-06 17:07 | 1.08462 | 105.07542 | 31455 ft | 461 kts | 248° |
| 2026-05-06 17:07 | 1.07331 | 105.04594 | 31146 ft | 448 kts | 251° |
| 2026-05-06 17:07 | 1.06722 | 105.01598 | 30879 ft | 435 kts | 266° |
| 2026-05-06 17:08 | 1.06889 | 104.98621 | 30405 ft | 427 kts | 281° |
| 2026-05-06 17:08 | 1.07753 | 104.95806 | 29798 ft | 423 kts | 294° |
| 2026-05-06 17:08 | 1.09168 | 104.93246 | 29194 ft | 419 kts | 302° |
| 2026-05-06 17:08 | 1.10734 | 104.90805 | 28624 ft | 416 kts | 303° |
| 2026-05-06 17:09 | 1.12285 | 104.88383 | 28014 ft | 412 kts | 302° |
| 2026-05-06 17:09 | 1.13804 | 104.85967 | 27433 ft | 409 kts | 302° |
| 2026-05-06 17:09 | 1.15295 | 104.83571 | 26838 ft | 404 kts | 302° |
| 2026-05-06 17:09 | 1.16725 | 104.81170 | 26208 ft | 400 kts | 297° |
| 2026-05-06 17:10 | 1.17582 | 104.78557 | 25555 ft | 396 kts | 278° |
| 2026-05-06 17:10 | 1.17614 | 104.75816 | 24898 ft | 392 kts | 264° |
| 2026-05-06 17:10 | 1.17309 | 104.73121 | 24280 ft | 389 kts | 263° |
| 2026-05-06 17:10 | 1.17059 | 104.70436 | 23696 ft | 387 kts | 265° |
| 2026-05-06 17:11 | 1.16899 | 104.67766 | 23129 ft | 383 kts | 267° |
| 2026-05-06 17:11 | 1.16793 | 104.65119 | 22580 ft | 379 kts | 268° |
| 2026-05-06 17:11 | 1.16713 | 104.62497 | 22025 ft | 376 kts | 268° |
| 2026-05-06 17:11 | 1.16643 | 104.59899 | 21483 ft | 372 kts | 269° |
| 2026-05-06 17:12 | 1.16579 | 104.57324 | 20948 ft | 369 kts | 268° |
| 2026-05-06 17:12 | 1.16515 | 104.54774 | 20411 ft | 365 kts | 268° |
| 2026-05-06 17:12 | 1.16453 | 104.52251 | 19880 ft | 362 kts | 268° |
| 2026-05-06 17:12 | 1.16389 | 104.49748 | 19337 ft | 358 kts | 268° |
| 2026-05-06 17:13 | 1.16325 | 104.47276 | 18803 ft | 355 kts | 268° |
| 2026-05-06 17:13 | 1.16263 | 104.44827 | 18266 ft | 351 kts | 269° |
| 2026-05-06 17:13 | 1.16201 | 104.42402 | 17723 ft | 348 kts | 269° |
| 2026-05-06 17:13 | 1.16133 | 104.39997 | 17182 ft | 345 kts | 267° |
| 2026-05-06 17:14 | 1.15969 | 104.37623 | 16644 ft | 341 kts | 265° |
| 2026-05-06 17:14 | 1.15771 | 104.35271 | 16115 ft | 338 kts | 265° |
| 2026-05-06 17:14 | 1.15573 | 104.32970 | 15580 ft | 336 kts | 265° |
| 2026-05-06 17:14 | 1.15375 | 104.30653 | 15079 ft | 333 kts | 265° |
| 2026-05-06 17:15 | 1.15179 | 104.28329 | 14551 ft | 330 kts | 265° |
| 2026-05-06 17:15 | 1.14989 | 104.26083 | 14031 ft | 327 kts | 265° |
| 2026-05-06 17:15 | 1.14798 | 104.23828 | 13502 ft | 324 kts | 265° |
| 2026-05-06 17:15 | 1.14613 | 104.21595 | 12889 ft | 321 kts | 265° |
| 2026-05-06 17:16 | 1.14443 | 104.19379 | 12181 ft | 318 kts | 266° |
| 2026-05-06 17:16 | 1.14288 | 104.17193 | 11472 ft | 314 kts | 266° |
| 2026-05-06 17:16 | 1.14135 | 104.15028 | 10766 ft | 311 kts | 266° |
| 2026-05-06 17:16 | 1.13982 | 104.12885 | 10079 ft | 308 kts | 266° |
| 2026-05-06 17:17 | 1.13831 | 104.10763 | 9365 ft | 305 kts | 266° |
| 2026-05-06 17:17 | 1.13682 | 104.08658 | 8749 ft | 303 kts | 265° |
| 2026-05-06 17:17 | 1.13535 | 104.06571 | 8281 ft | 300 kts | 265° |
| 2026-05-06 17:17 | 1.13386 | 104.04501 | 7820 ft | 298 kts | 265° |
| 2026-05-06 17:18 | 1.13238 | 104.02447 | 7315 ft | 294 kts | 265° |
| 2026-05-06 17:18 | 1.13093 | 104.00414 | 6620 ft | 291 kts | 265° |
| 2026-05-06 17:18 | 1.12949 | 103.98403 | 5933 ft | 289 kts | 265° |
| 2026-05-06 17:18 | 1.12805 | 103.96412 | 5241 ft | 285 kts | 265° |
| 2026-05-06 17:19 | 1.12659 | 103.94438 | 4590 ft | 287 kts | 265° |
| 2026-05-06 17:19 | 1.12514 | 103.92453 | 4153 ft | 283 kts | 266° |
| 2026-05-06 17:19 | 1.12377 | 103.90557 | 3966 ft | 264 kts | 265° |
| 2026-05-06 17:19 | 1.12250 | 103.88792 | 3745 ft | 245 kts | 266° |
| 2026-05-06 17:20 | 1.12134 | 103.87143 | 3573 ft | 232 kts | 266° |
| 2026-05-06 17:20 | 1.12086 | 103.85555 | 3511 ft | 227 kts | 278° |
| 2026-05-06 17:20 | 1.12699 | 103.84106 | 3862 ft | 230 kts | 311° |
| 2026-05-06 17:20 | 1.13777 | 103.82927 | 3917 ft | 230 kts | 315° |
| 2026-05-06 17:21 | 1.15094 | 103.82104 | 3954 ft | 214 kts | 345° |
| 2026-05-06 17:21 | 1.16533 | 103.82088 | 4019 ft | 209 kts | 15° |
| 2026-05-06 17:21 | 1.17747 | 103.82806 | 3810 ft | 202 kts | 45° |
| 2026-05-06 17:21 | 1.18623 | 103.83882 | 3465 ft | 196 kts | 62° |
| 2026-05-06 17:22 | 1.19180 | 103.85104 | 3145 ft | 191 kts | 65° |
| 2026-05-06 17:22 | 1.19748 | 103.86308 | 2936 ft | 191 kts | 65° |
| 2026-05-06 17:22 | 1.20311 | 103.87501 | 2605 ft | 190 kts | 65° |
| 2026-05-06 17:22 | 1.20883 | 103.88718 | 2502 ft | 200 kts | 65° |
| 2026-05-06 17:23 | 1.21506 | 103.89971 | 2496 ft | 202 kts | 61° |
| 2026-05-06 17:23 | 1.22207 | 103.91187 | 2501 ft | 202 kts | 60° |
| 2026-05-06 17:23 | 1.22968 | 103.92368 | 2487 ft | 202 kts | 49° |
| 2026-05-06 17:23 | 1.24053 | 103.93187 | 2329 ft | 192 kts | 29° |
| 2026-05-06 17:24 | 1.25273 | 103.93714 | 2123 ft | 188 kts | 19° |
| 2026-05-06 17:24 | 1.26466 | 103.94204 | 1874 ft | 183 kts | 22° |
| 2026-05-06 17:24 | 1.27570 | 103.94665 | 1639 ft | 160 kts | 22° |
| 2026-05-06 17:24 | 1.28515 | 103.95063 | 1402 ft | 139 kts | 23° |
| 2026-05-06 17:25 | 1.29394 | 103.95433 | 1223 ft | 136 kts | 22° |
| 2026-05-06 17:25 | 1.30267 | 103.95801 | 1049 ft | 136 kts | 22° |
| 2026-05-06 17:25 | 1.31124 | 103.96162 | 873 ft | 135 kts | 22° |
| 2026-05-06 17:25 | 1.31990 | 103.96526 | 686 ft | 135 kts | 22° |
| 2026-05-06 17:26 | 1.32854 | 103.96890 | 511 ft | 135 kts | 23° |
| 2026-05-06 17:26 | 1.33713 | 103.97260 | 351 ft | 134 kts | 23° |
| 2026-05-06 17:26 | 1.34576 | 103.97619 | 192 ft | 135 kts | 22° |
| 2026-05-06 17:26 | 1.35438 | 103.97972 | 40 ft | 131 kts | 22° |
| 2026-05-06 17:27 | 1.36155 | 103.98283 | 29 ft | 71 kts | 23° |
| 2026-05-06 17:27 | 1.36485 | 103.98422 | 29 ft | 42 kts | 24° |
| 2026-05-06 17:27 | 1.36691 | 103.98565 | 29 ft | 33 kts | 49° |
| 2026-05-06 17:27 | 1.36768 | 103.98663 | 29 ft | 17 kts | 51° |
| 2026-05-06 17:28 | 1.36805 | 103.98722 | 29 ft | 13 kts | 75° |
| 2026-05-06 17:28 | 1.36825 | 103.98813 | 29 ft | 15 kts | 102° |
| 2026-05-06 17:28 | 1.36802 | 103.98871 | 29 ft | 9 kts | 111° |
| 2026-05-06 17:28 | 1.36763 | 103.98968 | 29 ft | 13 kts | 114° |
| 2026-05-06 17:29 | 1.36736 | 103.99024 | 29 ft | 13 kts | 115° |
| 2026-05-06 17:29 | 1.36713 | 103.99075 | 29 ft | 1 kts | 114° |
| 2026-05-06 17:29 | 1.36710 | 103.99081 | 29 ft | 1 kts | 114° |
| 2026-05-06 17:29 | 1.36705 | 103.99092 | 29 ft | 3 kts | 114° |
| 2026-05-06 17:30 | 1.36688 | 103.99114 | 29 ft | 5 kts | 142° |
| 2026-05-06 17:30 | 1.36645 | 103.99123 | 29 ft | 8 kts | 178° |
| 2026-05-06 17:30 | 1.36594 | 103.99126 | 29 ft | 0 kts | 173° |
| 2026-05-06 17:30 | 1.36584 | 103.99127 | 29 ft | 3 kts | 174° |
| 2026-05-06 17:31 | 1.36563 | 103.99125 | 29 ft | 0 kts | 208° |
| 2026-05-06 17:31 | 1.36557 | 103.99115 | 29 ft | 3 kts | 246° |
| 2026-05-06 17:31 | 1.36555 | 103.99102 | 29 ft | 0 kts | 269° |
| 2026-05-06 17:31 | 1.36553 | 103.99090 | 29 ft | 3 kts | 260° |
| 2026-05-06 17:32 | 1.36549 | 103.99062 | 29 ft | 3 kts | 264° |
| 2026-05-06 17:32 | 1.36548 | 103.99056 | 29 ft | 2 kts | 262° |
| 2026-05-06 17:32 | 1.36547 | 103.99049 | 29 ft | 0 kts | 263° |